Terminal Aerodrome Forecast
Issued by NWS

Home | Current Version | Previous Version | Text Only | Print | Product List | Glossary On
Versions: 1 2 3 4 5 6 7 8 9 10 11 12 13 14 15 16 17 18 19 20 21 22 23 24
000
FTUS45 KBOU 170806 AAA
TAFAPA
TAF AMD
KAPA 170806Z 1708/1806 VRB04KT P6SM SKC
     FM171000 17007KT P6SM SKC
     FM171900 08010KT P6SM SCT220
     FM172300 13014KT P6SM FEW140 BKN220
     FM180300 17011KT P6SM SCT140 BKN200=

USA.gov is the U.S. government's official web portal to all federal, state and local government web resources and services.